sensor_id;sensor_type;location;lat;lon;timestamp;P1;durP1;ratioP1;P2;durP2;ratioP2
12407;SDS011;6268;48.188;17.134;2023-05-25T00:00:51;13.80;;;12.60;;
12407;SDS011;6268;48.188;17.134;2023-05-25T00:04:15;14.15;;;12.68;;
12407;SDS011;6268;48.188;17.134;2023-05-25T00:07:36;14.30;;;13.00;;
12407;SDS011;6268;48.188;17.134;2023-05-25T00:10:58;13.60;;;12.30;;
12407;SDS011;6268;48.188;17.134;2023-05-25T00:14:21;13.10;;;11.90;;
12407;SDS011;6268;48.188;17.134;2023-05-25T00:17:42;12.85;;;11.75;;
12407;SDS011;6268;48.188;17.134;2023-05-25T00:21:04;14.38;;;13.00;;
12407;SDS011;6268;48.188;17.134;2023-05-25T00:24:28;14.00;;;12.80;;
12407;SDS011;6268;48.188;17.134;2023-05-25T00:27:50;14.25;;;12.95;;
12407;SDS011;6268;48.188;17.134;2023-05-25T00:31:12;13.70;;;12.40;;
12407;SDS011;6268;48.188;17.134;2023-05-25T00:34:34;14.93;;;13.40;;
12407;SDS011;6268;48.188;17.134;2023-05-25T00:37:55;13.90;;;12.70;;
12407;SDS011;6268;48.188;17.134;2023-05-25T00:41:17;14.70;;;13.30;;
12407;SDS011;6268;48.188;17.134;2023-05-25T00:44:38;13.45;;;12.07;;
12407;SDS011;6268;48.188;17.134;2023-05-25T00:48:01;13.60;;;12.27;;
12407;SDS011;6268;48.188;17.134;2023-05-25T00:51:23;13.98;;;12.77;;
12407;SDS011;6268;48.188;17.134;2023-05-25T00:54:46;14.57;;;13.23;;
12407;SDS011;6268;48.188;17.134;2023-05-25T00:58:12;14.57;;;13.27;;
12407;SDS011;6268;48.188;17.134;2023-05-25T01:01:38;14.50;;;12.98;;
12407;SDS011;6268;48.188;17.134;2023-05-25T01:05:02;13.43;;;12.27;;
12407;SDS011;6268;48.188;17.134;2023-05-25T01:08:29;15.02;;;13.32;;
12407;SDS011;6268;48.188;17.134;2023-05-25T01:12:09;14.68;;;13.15;;
12407;SDS011;6268;48.188;17.134;2023-05-25T01:14:38;15.20;;;13.73;;
12407;SDS011;6268;48.188;17.134;2023-05-25T01:17:07;14.63;;;13.00;;
12407;SDS011;6268;48.188;17.134;2023-05-25T01:19:36;13.85;;;12.48;;
12407;SDS011;6268;48.188;17.134;2023-05-25T01:22:10;14.50;;;13.07;;
12407;SDS011;6268;48.188;17.134;2023-05-25T01:24:43;15.35;;;13.85;;
12407;SDS011;6268;48.188;17.134;2023-05-25T01:27:15;15.75;;;13.70;;
12407;SDS011;6268;48.188;17.134;2023-05-25T01:29:51;15.32;;;13.63;;
12407;SDS011;6268;48.188;17.134;2023-05-25T01:32:21;15.43;;;13.93;;
12407;SDS011;6268;48.188;17.134;2023-05-25T01:34:50;14.80;;;13.40;;
12407;SDS011;6268;48.188;17.134;2023-05-25T01:37:23;14.88;;;13.52;;
12407;SDS011;6268;48.188;17.134;2023-05-25T01:39:54;14.80;;;13.38;;
12407;SDS011;6268;48.188;17.134;2023-05-25T01:42:22;14.48;;;13.10;;
12407;SDS011;6268;48.188;17.134;2023-05-25T01:44:50;15.90;;;14.30;;
12407;SDS011;6268;48.188;17.134;2023-05-25T01:47:20;14.45;;;13.23;;
12407;SDS011;6268;48.188;17.134;2023-05-25T01:49:59;14.82;;;13.48;;
12407;SDS011;6268;48.188;17.134;2023-05-25T01:52:37;14.90;;;13.43;;
12407;SDS011;6268;48.188;17.134;2023-05-25T01:55:12;15.38;;;13.77;;
12407;SDS011;6268;48.188;17.134;2023-05-25T01:57:44;15.32;;;13.40;;
12407;SDS011;6268;48.188;17.134;2023-05-25T02:00:18;14.63;;;12.93;;
12407;SDS011;6268;48.188;17.134;2023-05-25T02:02:48;15.40;;;13.85;;
12407;SDS011;6268;48.188;17.134;2023-05-25T02:05:18;15.68;;;13.13;;
12407;SDS011;6268;48.188;17.134;2023-05-25T02:07:48;15.55;;;13.93;;
12407;SDS011;6268;48.188;17.134;2023-05-25T02:10:17;15.00;;;13.40;;
12407;SDS011;6268;48.188;17.134;2023-05-25T02:12:45;13.93;;;12.65;;
12407;SDS011;6268;48.188;17.134;2023-05-25T02:15:14;16.08;;;14.48;;
12407;SDS011;6268;48.188;17.134;2023-05-25T02:17:45;14.93;;;13.57;;
12407;SDS011;6268;48.188;17.134;2023-05-25T02:20:13;14.73;;;13.23;;
12407;SDS011;6268;48.188;17.134;2023-05-25T02:22:42;15.07;;;13.68;;
12407;SDS011;6268;48.188;17.134;2023-05-25T02:25:12;15.05;;;13.65;;
12407;SDS011;6268;48.188;17.134;2023-05-25T02:27:40;13.48;;;12.23;;
12407;SDS011;6268;48.188;17.134;2023-05-25T02:30:09;14.60;;;12.88;;
12407;SDS011;6268;48.188;17.134;2023-05-25T02:32:38;13.68;;;12.38;;
12407;SDS011;6268;48.188;17.134;2023-05-25T02:35:07;14.00;;;12.65;;
12407;SDS011;6268;48.188;17.134;2023-05-25T02:37:37;13.32;;;12.05;;
12407;SDS011;6268;48.188;17.134;2023-05-25T02:40:06;12.90;;;11.55;;
12407;SDS011;6268;48.188;17.134;2023-05-25T02:42:37;13.75;;;12.30;;
12407;SDS011;6268;48.188;17.134;2023-05-25T02:45:06;13.20;;;11.88;;
12407;SDS011;6268;48.188;17.134;2023-05-25T02:47:37;12.85;;;11.50;;
12407;SDS011;6268;48.188;17.134;2023-05-25T02:50:06;13.45;;;11.90;;
12407;SDS011;6268;48.188;17.134;2023-05-25T02:52:34;14.07;;;11.45;;
12407;SDS011;6268;48.188;17.134;2023-05-25T02:55:03;13.85;;;12.55;;
12407;SDS011;6268;48.188;17.134;2023-05-25T02:57:33;12.55;;;11.45;;
12407;SDS011;6268;48.188;17.134;2023-05-25T03:00:04;12.27;;;11.07;;
12407;SDS011;6268;48.188;17.134;2023-05-25T03:02:34;12.13;;;10.80;;
12407;SDS011;6268;48.188;17.134;2023-05-25T03:05:02;12.05;;;10.73;;
12407;SDS011;6268;48.188;17.134;2023-05-25T03:07:32;12.50;;;11.30;;
12407;SDS011;6268;48.188;17.134;2023-05-25T03:10:00;11.77;;;10.65;;
12407;SDS011;6268;48.188;17.134;2023-05-25T03:12:29;11.93;;;10.80;;
12407;SDS011;6268;48.188;17.134;2023-05-25T03:14:57;11.32;;;10.27;;
12407;SDS011;6268;48.188;17.134;2023-05-25T03:17:27;11.68;;;10.35;;
12407;SDS011;6268;48.188;17.134;2023-05-25T03:19:55;11.82;;;10.57;;
12407;SDS011;6268;48.188;17.134;2023-05-25T03:22:24;12.02;;;10.07;;
12407;SDS011;6268;48.188;17.134;2023-05-25T03:24:53;10.43;;;9.32;;
12407;SDS011;6268;48.188;17.134;2023-05-25T03:27:21;11.10;;;10.07;;
12407;SDS011;6268;48.188;17.134;2023-05-25T03:29:50;11.15;;;10.07;;
12407;SDS011;6268;48.188;17.134;2023-05-25T03:32:18;12.15;;;10.88;;
12407;SDS011;6268;48.188;17.134;2023-05-25T03:34:50;11.70;;;10.50;;
12407;SDS011;6268;48.188;17.134;2023-05-25T03:37:18;13.20;;;11.48;;
12407;SDS011;6268;48.188;17.134;2023-05-25T03:39:47;10.93;;;9.85;;
12407;SDS011;6268;48.188;17.134;2023-05-25T03:42:15;12.73;;;11.43;;
12407;SDS011;6268;48.188;17.134;2023-05-25T03:44:44;12.15;;;10.95;;
12407;SDS011;6268;48.188;17.134;2023-05-25T03:47:12;15.43;;;11.68;;
12407;SDS011;6268;48.188;17.134;2023-05-25T03:49:41;12.05;;;10.48;;
12407;SDS011;6268;48.188;17.134;2023-05-25T03:52:11;11.77;;;9.95;;
12407;SDS011;6268;48.188;17.134;2023-05-25T03:54:39;12.13;;;9.90;;
12407;SDS011;6268;48.188;17.134;2023-05-25T03:57:07;10.43;;;9.30;;
12407;SDS011;6268;48.188;17.134;2023-05-25T03:59:36;9.85;;;8.90;;
12407;SDS011;6268;48.188;17.134;2023-05-25T04:02:05;11.30;;;10.13;;
12407;SDS011;6268;48.188;17.134;2023-05-25T04:04:33;10.13;;;8.95;;
12407;SDS011;6268;48.188;17.134;2023-05-25T04:07:03;13.15;;;9.43;;
12407;SDS011;6268;48.188;17.134;2023-05-25T04:09:34;10.45;;;8.48;;
12407;SDS011;6268;48.188;17.134;2023-05-25T04:12:02;10.50;;;9.32;;
12407;SDS011;6268;48.188;17.134;2023-05-25T04:14:31;9.70;;;8.80;;
12407;SDS011;6268;48.188;17.134;2023-05-25T04:17:00;12.07;;;9.57;;
12407;SDS011;6268;48.188;17.134;2023-05-25T04:19:28;9.77;;;8.77;;
12407;SDS011;6268;48.188;17.134;2023-05-25T04:21:57;12.23;;;10.75;;
12407;SDS011;6268;48.188;17.134;2023-05-25T04:24:25;10.63;;;9.52;;
12407;SDS011;6268;48.188;17.134;2023-05-25T04:26:55;11.02;;;9.93;;
12407;SDS011;6268;48.188;17.134;2023-05-25T04:29:24;10.10;;;9.00;;
12407;SDS011;6268;48.188;17.134;2023-05-25T04:31:52;10.15;;;9.15;;
12407;SDS011;6268;48.188;17.134;2023-05-25T04:34:21;9.88;;;8.95;;
12407;SDS011;6268;48.188;17.134;2023-05-25T04:36:50;9.88;;;8.98;;
12407;SDS011;6268;48.188;17.134;2023-05-25T04:39:19;9.48;;;8.55;;
12407;SDS011;6268;48.188;17.134;2023-05-25T04:41:47;10.25;;;8.93;;
12407;SDS011;6268;48.188;17.134;2023-05-25T04:44:18;10.32;;;9.02;;
12407;SDS011;6268;48.188;17.134;2023-05-25T04:46:47;8.85;;;8.00;;
12407;SDS011;6268;48.188;17.134;2023-05-25T04:49:15;9.32;;;8.38;;
12407;SDS011;6268;48.188;17.134;2023-05-25T04:51:45;9.57;;;8.68;;
12407;SDS011;6268;48.188;17.134;2023-05-25T04:54:13;9.60;;;8.65;;
12407;SDS011;6268;48.188;17.134;2023-05-25T04:56:42;10.02;;;8.45;;
12407;SDS011;6268;48.188;17.134;2023-05-25T04:59:10;9.25;;;8.30;;
12407;SDS011;6268;48.188;17.134;2023-05-25T05:01:40;9.10;;;7.57;;
12407;SDS011;6268;48.188;17.134;2023-05-25T05:04:10;10.52;;;8.02;;
12407;SDS011;6268;48.188;17.134;2023-05-25T05:06:38;8.68;;;7.43;;
12407;SDS011;6268;48.188;17.134;2023-05-25T05:09:07;10.40;;;7.53;;
12407;SDS011;6268;48.188;17.134;2023-05-25T05:11:35;7.47;;;6.88;;
12407;SDS011;6268;48.188;17.134;2023-05-25T05:14:04;9.15;;;7.50;;
12407;SDS011;6268;48.188;17.134;2023-05-25T05:16:32;5.80;;;5.28;;
12407;SDS011;6268;48.188;17.134;2023-05-25T05:19:04;7.20;;;5.75;;
12407;SDS011;6268;48.188;17.134;2023-05-25T05:21:33;5.78;;;5.20;;
12407;SDS011;6268;48.188;17.134;2023-05-25T05:24:01;7.95;;;7.15;;
12407;SDS011;6268;48.188;17.134;2023-05-25T05:26:30;7.53;;;6.85;;
12407;SDS011;6268;48.188;17.134;2023-05-25T05:29:13;7.20;;;6.60;;
12407;SDS011;6268;48.188;17.134;2023-05-25T05:31:42;7.00;;;5.47;;
12407;SDS011;6268;48.188;17.134;2023-05-25T05:34:12;7.03;;;5.75;;
12407;SDS011;6268;48.188;17.134;2023-05-25T05:36:41;5.88;;;5.35;;
12407;SDS011;6268;48.188;17.134;2023-05-25T05:39:23;6.70;;;6.10;;
12407;SDS011;6268;48.188;17.134;2023-05-25T05:41:52;6.38;;;5.82;;
12407;SDS011;6268;48.188;17.134;2023-05-25T05:44:21;5.85;;;5.32;;
12407;SDS011;6268;48.188;17.134;2023-05-25T05:46:54;6.47;;;5.88;;
12407;SDS011;6268;48.188;17.134;2023-05-25T05:49:28;6.70;;;6.10;;
12407;SDS011;6268;48.188;17.134;2023-05-25T05:51:57;8.73;;;5.97;;
12407;SDS011;6268;48.188;17.134;2023-05-25T05:54:26;6.75;;;6.15;;
12407;SDS011;6268;48.188;17.134;2023-05-25T05:56:54;6.47;;;5.88;;
12407;SDS011;6268;48.188;17.134;2023-05-25T05:59:23;8.52;;;5.03;;
12407;SDS011;6268;48.188;17.134;2023-05-25T06:01:52;7.90;;;6.60;;
12407;SDS011;6268;48.188;17.134;2023-05-25T06:04:20;6.80;;;6.22;;
12407;SDS011;6268;48.188;17.134;2023-05-25T06:06:52;6.68;;;5.88;;
12407;SDS011;6268;48.188;17.134;2023-05-25T06:09:20;5.78;;;5.30;;
12407;SDS011;6268;48.188;17.134;2023-05-25T06:11:49;9.18;;;6.63;;
12407;SDS011;6268;48.188;17.134;2023-05-25T06:14:17;34.45;;;11.77;;
12407;SDS011;6268;48.188;17.134;2023-05-25T06:16:46;6.38;;;5.80;;
12407;SDS011;6268;48.188;17.134;2023-05-25T06:19:14;7.00;;;6.32;;
12407;SDS011;6268;48.188;17.134;2023-05-25T06:21:43;6.35;;;5.95;;
12407;SDS011;6268;48.188;17.134;2023-05-25T06:24:13;6.60;;;5.70;;
12407;SDS011;6268;48.188;17.134;2023-05-25T06:26:41;7.03;;;6.43;;
12407;SDS011;6268;48.188;17.134;2023-05-25T06:29:10;6.40;;;5.90;;
12407;SDS011;6268;48.188;17.134;2023-05-25T06:31:42;8.95;;;6.97;;
12407;SDS011;6268;48.188;17.134;2023-05-25T06:34:11;8.00;;;6.75;;
12407;SDS011;6268;48.188;17.134;2023-05-25T06:36:39;6.85;;;6.25;;
12407;SDS011;6268;48.188;17.134;2023-05-25T06:39:08;7.40;;;6.47;;
12407;SDS011;6268;48.188;17.134;2023-05-25T06:41:38;7.68;;;7.07;;
12407;SDS011;6268;48.188;17.134;2023-05-25T06:44:07;9.70;;;7.22;;
12407;SDS011;6268;48.188;17.134;2023-05-25T06:46:35;7.35;;;6.63;;
12407;SDS011;6268;48.188;17.134;2023-05-25T06:49:04;8.52;;;7.10;;
12407;SDS011;6268;48.188;17.134;2023-05-25T06:51:33;7.82;;;7.15;;
12407;SDS011;6268;48.188;17.134;2023-05-25T06:54:02;8.13;;;7.28;;
12407;SDS011;6268;48.188;17.134;2023-05-25T06:56:33;7.47;;;6.85;;
12407;SDS011;6268;48.188;17.134;2023-05-25T06:59:03;6.00;;;5.40;;
12407;SDS011;6268;48.188;17.134;2023-05-25T07:01:31;6.50;;;5.32;;
12407;SDS011;6268;48.188;17.134;2023-05-25T07:04:00;7.25;;;6.63;;
12407;SDS011;6268;48.188;17.134;2023-05-25T07:06:28;8.60;;;6.28;;
12407;SDS011;6268;48.188;17.134;2023-05-25T07:08:57;7.30;;;5.90;;
12407;SDS011;6268;48.188;17.134;2023-05-25T07:11:26;7.80;;;6.35;;
12407;SDS011;6268;48.188;17.134;2023-05-25T07:13:54;5.78;;;5.03;;
12407;SDS011;6268;48.188;17.134;2023-05-25T07:16:24;6.72;;;5.85;;
12407;SDS011;6268;48.188;17.134;2023-05-25T07:18:52;5.97;;;5.47;;
12407;SDS011;6268;48.188;17.134;2023-05-25T07:21:23;7.50;;;5.55;;
12407;SDS011;6268;48.188;17.134;2023-05-25T07:23:52;9.75;;;6.53;;
12407;SDS011;6268;48.188;17.134;2023-05-25T07:26:21;6.88;;;5.88;;
12407;SDS011;6268;48.188;17.134;2023-05-25T07:28:51;6.80;;;5.88;;
12407;SDS011;6268;48.188;17.134;2023-05-25T07:31:19;6.97;;;6.28;;
12407;SDS011;6268;48.188;17.134;2023-05-25T07:33:49;5.95;;;5.25;;
12407;SDS011;6268;48.188;17.134;2023-05-25T07:36:18;6.18;;;5.57;;
12407;SDS011;6268;48.188;17.134;2023-05-25T07:38:47;5.25;;;4.85;;
12407;SDS011;6268;48.188;17.134;2023-05-25T07:41:15;6.72;;;5.30;;
12407;SDS011;6268;48.188;17.134;2023-05-25T07:43:44;6.88;;;6.28;;
12407;SDS011;6268;48.188;17.134;2023-05-25T07:46:12;7.18;;;6.05;;
12407;SDS011;6268;48.188;17.134;2023-05-25T07:48:42;7.45;;;5.25;;
12407;SDS011;6268;48.188;17.134;2023-05-25T07:51:12;5.60;;;4.78;;
12407;SDS011;6268;48.188;17.134;2023-05-25T07:53:41;5.80;;;5.18;;
12407;SDS011;6268;48.188;17.134;2023-05-25T07:56:09;5.60;;;5.10;;
12407;SDS011;6268;48.188;17.134;2023-05-25T07:58:37;6.18;;;5.68;;
12407;SDS011;6268;48.188;17.134;2023-05-25T08:01:06;6.57;;;4.68;;
12407;SDS011;6268;48.188;17.134;2023-05-25T08:03:34;8.80;;;5.00;;
12407;SDS011;6268;48.188;17.134;2023-05-25T08:06:17;7.38;;;5.82;;
12407;SDS011;6268;48.188;17.134;2023-05-25T08:08:45;6.32;;;5.82;;
12407;SDS011;6268;48.188;17.134;2023-05-25T08:11:15;8.73;;;6.50;;
12407;SDS011;6268;48.188;17.134;2023-05-25T08:13:44;8.85;;;6.07;;
12407;SDS011;6268;48.188;17.134;2023-05-25T08:16:12;12.27;;;5.35;;
12407;SDS011;6268;48.188;17.134;2023-05-25T08:18:44;40.65;;;8.57;;
12407;SDS011;6268;48.188;17.134;2023-05-25T08:21:12;13.55;;;6.05;;
12407;SDS011;6268;48.188;17.134;2023-05-25T08:23:42;14.65;;;6.50;;
12407;SDS011;6268;48.188;17.134;2023-05-25T08:26:11;9.40;;;6.00;;
12407;SDS011;6268;48.188;17.134;2023-05-25T08:28:59;14.60;;;6.35;;
12407;SDS011;6268;48.188;17.134;2023-05-25T08:31:28;37.30;;;7.65;;
12407;SDS011;6268;48.188;17.134;2023-05-25T08:33:57;39.75;;;8.15;;
12407;SDS011;6268;48.188;17.134;2023-05-25T08:36:25;44.03;;;8.30;;
12407;SDS011;6268;48.188;17.134;2023-05-25T08:38:55;36.90;;;8.48;;
12407;SDS011;6268;48.188;17.134;2023-05-25T08:41:24;19.23;;;6.80;;
12407;SDS011;6268;48.188;17.134;2023-05-25T08:43:52;19.30;;;6.10;;
12407;SDS011;6268;48.188;17.134;2023-05-25T08:46:26;54.00;;;9.30;;
12407;SDS011;6268;48.188;17.134;2023-05-25T08:48:57;7.28;;;6.20;;
12407;SDS011;6268;48.188;17.134;2023-05-25T08:51:32;8.23;;;6.50;;
12407;SDS011;6268;48.188;17.134;2023-05-25T08:54:06;9.32;;;5.38;;
12407;SDS011;6268;48.188;17.134;2023-05-25T08:56:38;7.93;;;5.93;;
12407;SDS011;6268;48.188;17.134;2023-05-25T08:59:14;6.97;;;6.07;;
12407;SDS011;6268;48.188;17.134;2023-05-25T09:01:52;5.68;;;5.20;;
12407;SDS011;6268;48.188;17.134;2023-05-25T09:04:29;7.32;;;6.47;;
12407;SDS011;6268;48.188;17.134;2023-05-25T09:07:18;5.47;;;5.05;;
12407;SDS011;6268;48.188;17.134;2023-05-25T09:10:08;5.30;;;4.80;;
12407;SDS011;6268;48.188;17.134;2023-05-25T09:12:56;5.72;;;5.15;;
12407;SDS011;6268;48.188;17.134;2023-05-25T09:15:44;10.07;;;6.85;;
12407;SDS011;6268;48.188;17.134;2023-05-25T09:18:13;7.03;;;6.15;;
12407;SDS011;6268;48.188;17.134;2023-05-25T09:20:42;7.55;;;6.53;;
12407;SDS011;6268;48.188;17.134;2023-05-25T09:23:13;8.57;;;6.90;;
12407;SDS011;6268;48.188;17.134;2023-05-25T09:25:44;7.80;;;6.93;;
12407;SDS011;6268;48.188;17.134;2023-05-25T09:28:17;8.43;;;7.63;;
12407;SDS011;6268;48.188;17.134;2023-05-25T09:30:49;6.85;;;6.22;;
12407;SDS011;6268;48.188;17.134;2023-05-25T09:33:18;11.25;;;8.52;;
12407;SDS011;6268;48.188;17.134;2023-05-25T09:35:47;8.00;;;7.28;;
12407;SDS011;6268;48.188;17.134;2023-05-25T09:38:15;11.50;;;6.15;;
12407;SDS011;6268;48.188;17.134;2023-05-25T09:40:46;7.53;;;6.85;;
12407;SDS011;6268;48.188;17.134;2023-05-25T09:43:14;6.90;;;6.40;;
12407;SDS011;6268;48.188;17.134;2023-05-25T09:46:03;8.13;;;6.05;;
12407;SDS011;6268;48.188;17.134;2023-05-25T09:48:32;6.55;;;6.15;;
12407;SDS011;6268;48.188;17.134;2023-05-25T09:51:01;6.32;;;5.78;;
12407;SDS011;6268;48.188;17.134;2023-05-25T09:53:30;6.15;;;5.55;;
12407;SDS011;6268;48.188;17.134;2023-05-25T09:56:00;5.35;;;4.95;;
12407;SDS011;6268;48.188;17.134;2023-05-25T09:58:30;7.50;;;6.75;;
12407;SDS011;6268;48.188;17.134;2023-05-25T10:00:59;8.18;;;7.38;;
12407;SDS011;6268;48.188;17.134;2023-05-25T10:03:27;7.63;;;6.93;;
12407;SDS011;6268;48.188;17.134;2023-05-25T10:05:56;7.85;;;7.10;;
12407;SDS011;6268;48.188;17.134;2023-05-25T10:08:25;7.82;;;7.18;;
12407;SDS011;6268;48.188;17.134;2023-05-25T10:10:55;7.65;;;6.88;;
12407;SDS011;6268;48.188;17.134;2023-05-25T10:13:25;7.55;;;6.43;;
12407;SDS011;6268;48.188;17.134;2023-05-25T10:15:55;7.35;;;6.15;;
12407;SDS011;6268;48.188;17.134;2023-05-25T10:18:27;6.82;;;6.32;;
12407;SDS011;6268;48.188;17.134;2023-05-25T10:20:59;11.00;;;7.35;;
12407;SDS011;6268;48.188;17.134;2023-05-25T10:23:31;6.63;;;5.28;;
12407;SDS011;6268;48.188;17.134;2023-05-25T10:26:05;15.48;;;9.05;;
12407;SDS011;6268;48.188;17.134;2023-05-25T10:28:36;7.13;;;6.57;;
12407;SDS011;6268;48.188;17.134;2023-05-25T10:31:06;6.60;;;6.13;;
12407;SDS011;6268;48.188;17.134;2023-05-25T10:33:36;6.63;;;6.13;;
12407;SDS011;6268;48.188;17.134;2023-05-25T10:36:05;7.63;;;6.38;;
12407;SDS011;6268;48.188;17.134;2023-05-25T10:38:37;7.07;;;6.38;;
12407;SDS011;6268;48.188;17.134;2023-05-25T10:41:08;6.97;;;6.38;;
12407;SDS011;6268;48.188;17.134;2023-05-25T10:43:39;15.80;;;7.15;;
12407;SDS011;6268;48.188;17.134;2023-05-25T10:46:07;7.15;;;6.45;;
12407;SDS011;6268;48.188;17.134;2023-05-25T10:48:37;6.90;;;6.45;;
12407;SDS011;6268;48.188;17.134;2023-05-25T10:51:07;7.32;;;6.57;;
12407;SDS011;6268;48.188;17.134;2023-05-25T10:53:37;6.18;;;5.55;;
12407;SDS011;6268;48.188;17.134;2023-05-25T10:56:06;8.13;;;7.32;;
12407;SDS011;6268;48.188;17.134;2023-05-25T10:58:37;7.00;;;6.40;;
12407;SDS011;6268;48.188;17.134;2023-05-25T11:01:10;8.60;;;5.72;;
12407;SDS011;6268;48.188;17.134;2023-05-25T11:03:49;5.72;;;5.32;;
12407;SDS011;6268;48.188;17.134;2023-05-25T11:06:21;6.57;;;6.07;;
12407;SDS011;6268;48.188;17.134;2023-05-25T11:09:22;7.32;;;6.72;;
12407;SDS011;6268;48.188;17.134;2023-05-25T11:12:01;7.72;;;6.97;;
12407;SDS011;6268;48.188;17.134;2023-05-25T11:14:32;6.20;;;5.60;;
12407;SDS011;6268;48.188;17.134;2023-05-25T11:17:03;9.43;;;5.90;;
12407;SDS011;6268;48.188;17.134;2023-05-25T11:19:43;7.65;;;6.90;;
12407;SDS011;6268;48.188;17.134;2023-05-25T11:22:17;6.90;;;6.30;;
12407;SDS011;6268;48.188;17.134;2023-05-25T11:24:47;6.97;;;6.18;;
12407;SDS011;6268;48.188;17.134;2023-05-25T11:27:20;6.63;;;6.22;;
12407;SDS011;6268;48.188;17.134;2023-05-25T11:29:51;7.25;;;6.50;;
12407;SDS011;6268;48.188;17.134;2023-05-25T11:32:22;7.15;;;6.55;;
12407;SDS011;6268;48.188;17.134;2023-05-25T11:34:52;7.30;;;6.70;;
12407;SDS011;6268;48.188;17.134;2023-05-25T11:37:22;7.07;;;6.57;;
12407;SDS011;6268;48.188;17.134;2023-05-25T11:39:54;8.15;;;6.95;;
12407;SDS011;6268;48.188;17.134;2023-05-25T11:42:23;6.65;;;6.05;;
12407;SDS011;6268;48.188;17.134;2023-05-25T11:44:54;6.97;;;6.30;;
12407;SDS011;6268;48.188;17.134;2023-05-25T11:47:23;7.53;;;7.03;;
12407;SDS011;6268;48.188;17.134;2023-05-25T11:49:55;6.10;;;5.57;;
12407;SDS011;6268;48.188;17.134;2023-05-25T11:52:24;7.20;;;5.85;;
12407;SDS011;6268;48.188;17.134;2023-05-25T11:54:54;6.40;;;5.80;;
12407;SDS011;6268;48.188;17.134;2023-05-25T11:57:23;11.82;;;6.63;;
12407;SDS011;6268;48.188;17.134;2023-05-25T11:59:53;7.05;;;6.05;;
12407;SDS011;6268;48.188;17.134;2023-05-25T12:02:26;7.50;;;5.75;;
12407;SDS011;6268;48.188;17.134;2023-05-25T12:04:55;6.05;;;5.55;;
12407;SDS011;6268;48.188;17.134;2023-05-25T12:07:25;6.40;;;5.95;;
12407;SDS011;6268;48.188;17.134;2023-05-25T12:10:04;7.00;;;6.40;;
12407;SDS011;6268;48.188;17.134;2023-05-25T12:12:38;8.98;;;6.63;;
12407;SDS011;6268;48.188;17.134;2023-05-25T12:15:10;7.82;;;7.13;;
12407;SDS011;6268;48.188;17.134;2023-05-25T12:17:40;7.43;;;6.72;;
12407;SDS011;6268;48.188;17.134;2023-05-25T12:20:10;8.18;;;7.38;;
12407;SDS011;6268;48.188;17.134;2023-05-25T12:22:41;7.05;;;6.55;;
12407;SDS011;6268;48.188;17.134;2023-05-25T12:25:10;11.70;;;7.03;;
12407;SDS011;6268;48.188;17.134;2023-05-25T12:27:41;6.80;;;6.20;;
12407;SDS011;6268;48.188;17.134;2023-05-25T12:30:11;6.07;;;5.28;;
12407;SDS011;6268;48.188;17.134;2023-05-25T12:32:51;7.25;;;6.63;;
12407;SDS011;6268;48.188;17.134;2023-05-25T12:35:21;7.55;;;6.72;;
12407;SDS011;6268;48.188;17.134;2023-05-25T12:37:49;7.95;;;7.10;;
12407;SDS011;6268;48.188;17.134;2023-05-25T12:40:35;6.82;;;6.32;;
12407;SDS011;6268;48.188;17.134;2023-05-25T12:43:04;7.10;;;6.60;;
12407;SDS011;6268;48.188;17.134;2023-05-25T12:45:34;7.15;;;6.55;;
12407;SDS011;6268;48.188;17.134;2023-05-25T12:48:07;7.43;;;6.57;;
12407;SDS011;6268;48.188;17.134;2023-05-25T12:50:36;7.15;;;6.55;;
12407;SDS011;6268;48.188;17.134;2023-05-25T12:53:04;6.97;;;6.47;;
12407;SDS011;6268;48.188;17.134;2023-05-25T12:55:33;6.28;;;5.68;;
12407;SDS011;6268;48.188;17.134;2023-05-25T12:58:02;5.93;;;5.45;;
12407;SDS011;6268;48.188;17.134;2023-05-25T13:00:32;7.85;;;7.10;;
12407;SDS011;6268;48.188;17.134;2023-05-25T13:03:03;7.28;;;6.55;;
12407;SDS011;6268;48.188;17.134;2023-05-25T13:05:34;6.90;;;6.28;;
12407;SDS011;6268;48.188;17.134;2023-05-25T13:08:04;6.80;;;6.03;;
12407;SDS011;6268;48.188;17.134;2023-05-25T13:10:35;8.18;;;6.78;;
12407;SDS011;6268;48.188;17.134;2023-05-25T13:13:05;7.45;;;6.82;;
12407;SDS011;6268;48.188;17.134;2023-05-25T13:15:34;9.13;;;8.20;;
12407;SDS011;6268;48.188;17.134;2023-05-25T13:18:03;8.25;;;7.47;;
12407;SDS011;6268;48.188;17.134;2023-05-25T13:20:32;9.65;;;8.45;;
12407;SDS011;6268;48.188;17.134;2023-05-25T13:23:02;7.40;;;6.70;;
12407;SDS011;6268;48.188;17.134;2023-05-25T13:25:31;13.25;;;6.82;;
12407;SDS011;6268;48.188;17.134;2023-05-25T13:27:59;8.90;;;6.97;;
12407;SDS011;6268;48.188;17.134;2023-05-25T13:30:28;6.50;;;5.88;;
12407;SDS011;6268;48.188;17.134;2023-05-25T13:32:58;7.15;;;5.45;;
12407;SDS011;6268;48.188;17.134;2023-05-25T13:35:26;6.35;;;5.72;;
12407;SDS011;6268;48.188;17.134;2023-05-25T13:38:07;7.10;;;6.40;;
12407;SDS011;6268;48.188;17.134;2023-05-25T13:40:36;6.55;;;5.80;;
12407;SDS011;6268;48.188;17.134;2023-05-25T13:43:05;6.75;;;6.18;;
12407;SDS011;6268;48.188;17.134;2023-05-25T13:45:34;7.15;;;5.50;;
12407;SDS011;6268;48.188;17.134;2023-05-25T13:48:04;8.95;;;6.50;;
12407;SDS011;6268;48.188;17.134;2023-05-25T13:50:32;8.82;;;8.10;;
12407;SDS011;6268;48.188;17.134;2023-05-25T13:53:01;6.88;;;6.38;;
12407;SDS011;6268;48.188;17.134;2023-05-25T13:55:29;6.70;;;6.10;;
12407;SDS011;6268;48.188;17.134;2023-05-25T13:57:58;9.77;;;8.77;;
12407;SDS011;6268;48.188;17.134;2023-05-25T14:00:26;10.23;;;9.15;;
12407;SDS011;6268;48.188;17.134;2023-05-25T14:02:55;8.40;;;7.60;;
12407;SDS011;6268;48.188;17.134;2023-05-25T14:05:25;6.93;;;6.32;;
12407;SDS011;6268;48.188;17.134;2023-05-25T14:07:54;8.68;;;5.60;;
12407;SDS011;6268;48.188;17.134;2023-05-25T14:10:22;6.72;;;5.72;;
12407;SDS011;6268;48.188;17.134;2023-05-25T14:12:51;7.97;;;5.80;;
12407;SDS011;6268;48.188;17.134;2023-05-25T14:15:19;6.72;;;6.22;;
12407;SDS011;6268;48.188;17.134;2023-05-25T14:17:48;6.70;;;5.70;;
12407;SDS011;6268;48.188;17.134;2023-05-25T14:20:17;7.15;;;6.45;;
12407;SDS011;6268;48.188;17.134;2023-05-25T14:22:52;7.18;;;4.70;;
12407;SDS011;6268;48.188;17.134;2023-05-25T14:25:21;5.70;;;4.80;;
12407;SDS011;6268;48.188;17.134;2023-05-25T14:27:49;6.05;;;5.57;;
12407;SDS011;6268;48.188;17.134;2023-05-25T14:30:18;6.57;;;5.88;;
12407;SDS011;6268;48.188;17.134;2023-05-25T14:32:46;6.32;;;5.70;;
12407;SDS011;6268;48.188;17.134;2023-05-25T14:35:15;10.98;;;5.10;;
12407;SDS011;6268;48.188;17.134;2023-05-25T14:37:44;7.03;;;4.60;;
12407;SDS011;6268;48.188;17.134;2023-05-25T14:40:14;4.65;;;4.22;;
12407;SDS011;6268;48.188;17.134;2023-05-25T14:42:43;5.85;;;5.25;;
12407;SDS011;6268;48.188;17.134;2023-05-25T14:45:11;6.18;;;5.25;;
12407;SDS011;6268;48.188;17.134;2023-05-25T14:47:41;7.18;;;5.00;;
12407;SDS011;6268;48.188;17.134;2023-05-25T14:50:10;9.65;;;8.65;;
12407;SDS011;6268;48.188;17.134;2023-05-25T14:52:38;7.38;;;6.78;;
12407;SDS011;6268;48.188;17.134;2023-05-25T14:55:07;6.65;;;5.53;;
12407;SDS011;6268;48.188;17.134;2023-05-25T14:57:38;10.85;;;5.50;;
12407;SDS011;6268;48.188;17.134;2023-05-25T15:00:07;6.25;;;5.28;;
12407;SDS011;6268;48.188;17.134;2023-05-25T15:02:36;7.85;;;5.97;;
12407;SDS011;6268;48.188;17.134;2023-05-25T15:05:05;6.28;;;5.50;;
12407;SDS011;6268;48.188;17.134;2023-05-25T15:07:34;6.15;;;5.50;;
12407;SDS011;6268;48.188;17.134;2023-05-25T15:10:03;6.32;;;5.72;;
12407;SDS011;6268;48.188;17.134;2023-05-25T15:12:32;6.63;;;4.97;;
12407;SDS011;6268;48.188;17.134;2023-05-25T15:15:02;5.45;;;4.95;;
12407;SDS011;6268;48.188;17.134;2023-05-25T15:17:31;5.72;;;4.50;;